sensor_id;sensor_type;location;lat;lon;timestamp;P1;durP1;ratioP1;P2;durP2;ratioP2
26718;SDS011;14326;50.794;6.060;2023-06-22T00:00:48;15.35;;;6.68;;
26718;SDS011;14326;50.794;6.060;2023-06-22T00:03:27;16.05;;;6.85;;
26718;SDS011;14326;50.794;6.060;2023-06-22T00:06:11;17.30;;;6.82;;
26718;SDS011;14326;50.794;6.060;2023-06-22T00:08:44;17.77;;;6.75;;
26718;SDS011;14326;50.794;6.060;2023-06-22T00:11:11;17.25;;;7.38;;
26718;SDS011;14326;50.794;6.060;2023-06-22T00:13:37;16.65;;;6.45;;
26718;SDS011;14326;50.794;6.060;2023-06-22T00:16:05;18.15;;;6.78;;
26718;SDS011;14326;50.794;6.060;2023-06-22T00:18:32;17.48;;;6.53;;
26718;SDS011;14326;50.794;6.060;2023-06-22T00:20:58;15.50;;;6.65;;
26718;SDS011;14326;50.794;6.060;2023-06-22T00:23:25;16.58;;;6.70;;
26718;SDS011;14326;50.794;6.060;2023-06-22T00:25:56;15.45;;;6.68;;
26718;SDS011;14326;50.794;6.060;2023-06-22T00:28:31;16.83;;;7.45;;
26718;SDS011;14326;50.794;6.060;2023-06-22T00:30:58;16.42;;;7.70;;
26718;SDS011;14326;50.794;6.060;2023-06-22T00:33:34;18.35;;;7.22;;
26718;SDS011;14326;50.794;6.060;2023-06-22T00:38:42;15.80;;;7.00;;
26718;SDS011;14326;50.794;6.060;2023-06-22T00:41:09;17.95;;;7.65;;
26718;SDS011;14326;50.794;6.060;2023-06-22T00:43:35;17.77;;;7.72;;
26718;SDS011;14326;50.794;6.060;2023-06-22T00:46:02;16.75;;;7.35;;
26718;SDS011;14326;50.794;6.060;2023-06-22T00:48:28;18.75;;;7.22;;
26718;SDS011;14326;50.794;6.060;2023-06-22T00:50:56;15.18;;;7.03;;
26718;SDS011;14326;50.794;6.060;2023-06-22T00:53:22;17.83;;;6.78;;
26718;SDS011;14326;50.794;6.060;2023-06-22T00:55:49;19.10;;;7.68;;
26718;SDS011;14326;50.794;6.060;2023-06-22T00:58:16;16.45;;;6.97;;
26718;SDS011;14326;50.794;6.060;2023-06-22T01:00:43;16.13;;;6.80;;
26718;SDS011;14326;50.794;6.060;2023-06-22T01:03:09;17.25;;;7.28;;
26718;SDS011;14326;50.794;6.060;2023-06-22T01:05:45;16.67;;;7.78;;
26718;SDS011;14326;50.794;6.060;2023-06-22T01:08:24;17.70;;;7.38;;
26718;SDS011;14326;50.794;6.060;2023-06-22T01:10:53;16.00;;;7.00;;
26718;SDS011;14326;50.794;6.060;2023-06-22T01:13:24;17.65;;;7.30;;
26718;SDS011;14326;50.794;6.060;2023-06-22T01:15:53;16.90;;;6.82;;
26718;SDS011;14326;50.794;6.060;2023-06-22T01:18:21;15.95;;;6.82;;
26718;SDS011;14326;50.794;6.060;2023-06-22T01:20:53;16.63;;;7.10;;
26718;SDS011;14326;50.794;6.060;2023-06-22T01:23:30;16.63;;;6.63;;
26718;SDS011;14326;50.794;6.060;2023-06-22T01:26:10;15.25;;;7.00;;
26718;SDS011;14326;50.794;6.060;2023-06-22T01:29:08;15.00;;;6.55;;
26718;SDS011;14326;50.794;6.060;2023-06-22T01:31:45;17.17;;;7.40;;
26718;SDS011;14326;50.794;6.060;2023-06-22T01:37:11;18.38;;;7.10;;
26718;SDS011;14326;50.794;6.060;2023-06-22T01:39:37;19.05;;;7.85;;
26718;SDS011;14326;50.794;6.060;2023-06-22T01:42:04;17.35;;;7.40;;
26718;SDS011;14326;50.794;6.060;2023-06-22T01:44:34;22.52;;;7.47;;
26718;SDS011;14326;50.794;6.060;2023-06-22T01:47:17;15.02;;;6.50;;
26718;SDS011;14326;50.794;6.060;2023-06-22T01:49:44;18.33;;;6.97;;
26718;SDS011;14326;50.794;6.060;2023-06-22T01:52:13;15.57;;;6.88;;
26718;SDS011;14326;50.794;6.060;2023-06-22T01:54:50;16.08;;;7.18;;
26718;SDS011;14326;50.794;6.060;2023-06-22T01:57:29;21.08;;;7.50;;
26718;SDS011;14326;50.794;6.060;2023-06-22T02:03:07;16.48;;;7.20;;
26718;SDS011;14326;50.794;6.060;2023-06-22T02:11:32;16.23;;;6.30;;
26718;SDS011;14326;50.794;6.060;2023-06-22T02:13:59;14.98;;;6.30;;
26718;SDS011;14326;50.794;6.060;2023-06-22T02:16:26;16.98;;;6.50;;
26718;SDS011;14326;50.794;6.060;2023-06-22T02:18:56;15.50;;;6.65;;
26718;SDS011;14326;50.794;6.060;2023-06-22T02:21:27;20.73;;;7.03;;
26718;SDS011;14326;50.794;6.060;2023-06-22T02:23:53;18.35;;;6.72;;
26718;SDS011;14326;50.794;6.060;2023-06-22T02:26:19;17.33;;;6.05;;
26718;SDS011;14326;50.794;6.060;2023-06-22T02:28:46;17.73;;;7.32;;
26718;SDS011;14326;50.794;6.060;2023-06-22T02:31:12;17.50;;;6.43;;
26718;SDS011;14326;50.794;6.060;2023-06-22T02:33:39;17.52;;;8.05;;
26718;SDS011;14326;50.794;6.060;2023-06-22T02:36:06;17.33;;;6.90;;
26718;SDS011;14326;50.794;6.060;2023-06-22T02:38:34;16.75;;;7.20;;
26718;SDS011;14326;50.794;6.060;2023-06-22T02:41:01;16.58;;;6.97;;
26718;SDS011;14326;50.794;6.060;2023-06-22T02:43:33;19.52;;;7.90;;
26718;SDS011;14326;50.794;6.060;2023-06-22T02:46:13;17.73;;;7.70;;
26718;SDS011;14326;50.794;6.060;2023-06-22T02:48:49;17.75;;;8.07;;
26718;SDS011;14326;50.794;6.060;2023-06-22T02:51:18;18.88;;;7.47;;
26718;SDS011;14326;50.794;6.060;2023-06-22T02:56:42;17.13;;;7.95;;
26718;SDS011;14326;50.794;6.060;2023-06-22T02:59:13;17.90;;;8.18;;
26718;SDS011;14326;50.794;6.060;2023-06-22T03:01:39;16.98;;;7.28;;
26718;SDS011;14326;50.794;6.060;2023-06-22T03:04:06;18.45;;;7.80;;
26718;SDS011;14326;50.794;6.060;2023-06-22T03:06:34;18.88;;;7.85;;
26718;SDS011;14326;50.794;6.060;2023-06-22T03:09:04;18.58;;;7.57;;
26718;SDS011;14326;50.794;6.060;2023-06-22T03:11:39;18.02;;;7.88;;
26718;SDS011;14326;50.794;6.060;2023-06-22T03:14:10;20.00;;;7.88;;
26718;SDS011;14326;50.794;6.060;2023-06-22T03:16:56;18.60;;;7.60;;
26718;SDS011;14326;50.794;6.060;2023-06-22T03:19:28;18.38;;;8.52;;
26718;SDS011;14326;50.794;6.060;2023-06-22T03:21:59;20.23;;;8.40;;
26718;SDS011;14326;50.794;6.060;2023-06-22T03:24:25;20.25;;;9.02;;
26718;SDS011;14326;50.794;6.060;2023-06-22T03:26:54;19.45;;;7.88;;
26718;SDS011;14326;50.794;6.060;2023-06-22T03:29:29;20.27;;;8.43;;
26718;SDS011;14326;50.794;6.060;2023-06-22T03:32:09;22.65;;;8.88;;
26718;SDS011;14326;50.794;6.060;2023-06-22T03:34:36;18.88;;;9.00;;
26718;SDS011;14326;50.794;6.060;2023-06-22T03:37:04;18.48;;;8.05;;
26718;SDS011;14326;50.794;6.060;2023-06-22T03:39:31;18.77;;;7.30;;
26718;SDS011;14326;50.794;6.060;2023-06-22T03:41:57;20.48;;;8.48;;
26718;SDS011;14326;50.794;6.060;2023-06-22T03:44:24;22.00;;;9.18;;
26718;SDS011;14326;50.794;6.060;2023-06-22T03:47:01;19.98;;;8.18;;
26718;SDS011;14326;50.794;6.060;2023-06-22T03:49:27;19.88;;;8.52;;
26718;SDS011;14326;50.794;6.060;2023-06-22T03:51:53;19.85;;;9.15;;
26718;SDS011;14326;50.794;6.060;2023-06-22T03:54:21;20.63;;;8.63;;
26718;SDS011;14326;50.794;6.060;2023-06-22T03:56:47;22.60;;;8.52;;
26718;SDS011;14326;50.794;6.060;2023-06-22T04:02:07;20.50;;;9.35;;
26718;SDS011;14326;50.794;6.060;2023-06-22T04:04:34;18.77;;;8.27;;
26718;SDS011;14326;50.794;6.060;2023-06-22T04:07:00;20.33;;;9.45;;
26718;SDS011;14326;50.794;6.060;2023-06-22T04:09:39;19.27;;;8.48;;
26718;SDS011;14326;50.794;6.060;2023-06-22T04:12:06;19.33;;;7.82;;
26718;SDS011;14326;50.794;6.060;2023-06-22T04:14:32;18.95;;;8.25;;
26718;SDS011;14326;50.794;6.060;2023-06-22T04:16:58;20.80;;;8.27;;
26718;SDS011;14326;50.794;6.060;2023-06-22T04:19:25;20.55;;;7.82;;
26718;SDS011;14326;50.794;6.060;2023-06-22T04:21:51;19.55;;;8.00;;
26718;SDS011;14326;50.794;6.060;2023-06-22T04:24:18;19.88;;;7.90;;
26718;SDS011;14326;50.794;6.060;2023-06-22T04:26:45;18.65;;;8.05;;
26718;SDS011;14326;50.794;6.060;2023-06-22T04:29:12;20.70;;;7.85;;
26718;SDS011;14326;50.794;6.060;2023-06-22T04:31:39;18.90;;;8.13;;
26718;SDS011;14326;50.794;6.060;2023-06-22T04:34:06;20.10;;;7.82;;
26718;SDS011;14326;50.794;6.060;2023-06-22T04:36:51;20.83;;;8.43;;
26718;SDS011;14326;50.794;6.060;2023-06-22T04:39:18;21.08;;;7.57;;
26718;SDS011;14326;50.794;6.060;2023-06-22T04:41:45;20.73;;;7.75;;
26718;SDS011;14326;50.794;6.060;2023-06-22T04:44:17;19.48;;;7.95;;
26718;SDS011;14326;50.794;6.060;2023-06-22T04:46:48;19.85;;;7.75;;
26718;SDS011;14326;50.794;6.060;2023-06-22T04:49:26;19.08;;;7.13;;
26718;SDS011;14326;50.794;6.060;2023-06-22T04:52:15;21.95;;;8.55;;
26718;SDS011;14326;50.794;6.060;2023-06-22T04:54:56;22.00;;;8.45;;
26718;SDS011;14326;50.794;6.060;2023-06-22T04:57:28;22.23;;;9.23;;
26718;SDS011;14326;50.794;6.060;2023-06-22T05:00:02;21.40;;;8.88;;
26718;SDS011;14326;50.794;6.060;2023-06-22T05:02:38;20.63;;;7.47;;
26718;SDS011;14326;50.794;6.060;2023-06-22T05:05:05;18.88;;;8.45;;
26718;SDS011;14326;50.794;6.060;2023-06-22T05:07:32;21.33;;;10.10;;
26718;SDS011;14326;50.794;6.060;2023-06-22T05:09:58;21.45;;;8.52;;
26718;SDS011;14326;50.794;6.060;2023-06-22T05:12:27;23.15;;;9.65;;
26718;SDS011;14326;50.794;6.060;2023-06-22T05:14:53;19.50;;;8.52;;
26718;SDS011;14326;50.794;6.060;2023-06-22T05:17:37;21.65;;;9.13;;
26718;SDS011;14326;50.794;6.060;2023-06-22T05:20:08;23.33;;;9.25;;
26718;SDS011;14326;50.794;6.060;2023-06-22T05:22:38;19.45;;;8.88;;
26718;SDS011;14326;50.794;6.060;2023-06-22T05:25:05;21.15;;;8.85;;
26718;SDS011;14326;50.794;6.060;2023-06-22T05:27:33;21.90;;;9.55;;
26718;SDS011;14326;50.794;6.060;2023-06-22T05:30:04;23.08;;;9.73;;
26718;SDS011;14326;50.794;6.060;2023-06-22T05:32:31;18.92;;;8.57;;
26718;SDS011;14326;50.794;6.060;2023-06-22T05:35:12;21.92;;;9.93;;
26718;SDS011;14326;50.794;6.060;2023-06-22T05:37:39;22.55;;;8.65;;
26718;SDS011;14326;50.794;6.060;2023-06-22T05:40:25;21.60;;;8.93;;
26718;SDS011;14326;50.794;6.060;2023-06-22T05:42:53;21.60;;;10.13;;
26718;SDS011;14326;50.794;6.060;2023-06-22T05:45:20;22.33;;;10.27;;
26718;SDS011;14326;50.794;6.060;2023-06-22T05:47:46;22.35;;;9.50;;
26718;SDS011;14326;50.794;6.060;2023-06-22T05:50:13;23.85;;;10.27;;
26718;SDS011;14326;50.794;6.060;2023-06-22T05:52:53;21.77;;;9.18;;
26718;SDS011;14326;50.794;6.060;2023-06-22T05:55:34;25.30;;;10.45;;
26718;SDS011;14326;50.794;6.060;2023-06-22T05:58:02;20.73;;;9.90;;
26718;SDS011;14326;50.794;6.060;2023-06-22T06:00:29;21.67;;;9.32;;
26718;SDS011;14326;50.794;6.060;2023-06-22T06:02:57;20.40;;;9.75;;
26718;SDS011;14326;50.794;6.060;2023-06-22T06:05:28;24.92;;;10.40;;
26718;SDS011;14326;50.794;6.060;2023-06-22T06:10:54;23.95;;;10.23;;
26718;SDS011;14326;50.794;6.060;2023-06-22T06:16:11;20.25;;;10.27;;
26718;SDS011;14326;50.794;6.060;2023-06-22T06:18:38;23.40;;;10.63;;
26718;SDS011;14326;50.794;6.060;2023-06-22T06:21:04;22.00;;;10.02;;
26718;SDS011;14326;50.794;6.060;2023-06-22T06:23:30;22.60;;;9.45;;
26718;SDS011;14326;50.794;6.060;2023-06-22T06:25:57;20.63;;;9.38;;
26718;SDS011;14326;50.794;6.060;2023-06-22T06:31:22;24.10;;;10.75;;
26718;SDS011;14326;50.794;6.060;2023-06-22T06:33:55;22.90;;;10.25;;
26718;SDS011;14326;50.794;6.060;2023-06-22T06:36:22;21.15;;;10.05;;
26718;SDS011;14326;50.794;6.060;2023-06-22T06:38:48;20.95;;;9.95;;
26718;SDS011;14326;50.794;6.060;2023-06-22T06:41:15;22.60;;;11.00;;
26718;SDS011;14326;50.794;6.060;2023-06-22T06:43:55;21.80;;;10.20;;
26718;SDS011;14326;50.794;6.060;2023-06-22T06:48:49;28.70;;;10.52;;
26718;SDS011;14326;50.794;6.060;2023-06-22T06:51:15;24.20;;;11.65;;
26718;SDS011;14326;50.794;6.060;2023-06-22T06:53:41;22.20;;;10.70;;
26718;SDS011;14326;50.794;6.060;2023-06-22T06:56:08;28.55;;;12.65;;
26718;SDS011;14326;50.794;6.060;2023-06-22T06:58:35;20.88;;;10.75;;
26718;SDS011;14326;50.794;6.060;2023-06-22T07:01:02;26.92;;;12.25;;
26718;SDS011;14326;50.794;6.060;2023-06-22T07:03:28;23.90;;;10.50;;
26718;SDS011;14326;50.794;6.060;2023-06-22T07:05:56;25.52;;;11.43;;
26718;SDS011;14326;50.794;6.060;2023-06-22T07:08:22;24.55;;;11.23;;
26718;SDS011;14326;50.794;6.060;2023-06-22T07:10:49;21.27;;;11.85;;
26718;SDS011;14326;50.794;6.060;2023-06-22T07:13:15;20.88;;;10.63;;
26718;SDS011;14326;50.794;6.060;2023-06-22T07:15:41;23.27;;;10.77;;
26718;SDS011;14326;50.794;6.060;2023-06-22T07:18:08;22.13;;;10.45;;
26718;SDS011;14326;50.794;6.060;2023-06-22T07:20:34;23.23;;;10.45;;
26718;SDS011;14326;50.794;6.060;2023-06-22T07:23:02;24.00;;;10.90;;
26718;SDS011;14326;50.794;6.060;2023-06-22T07:25:29;23.13;;;10.85;;
26718;SDS011;14326;50.794;6.060;2023-06-22T07:27:57;22.17;;;10.75;;
26718;SDS011;14326;50.794;6.060;2023-06-22T07:30:24;24.13;;;10.45;;
26718;SDS011;14326;50.794;6.060;2023-06-22T07:32:50;22.98;;;9.65;;
26718;SDS011;14326;50.794;6.060;2023-06-22T07:35:17;24.95;;;11.45;;
26718;SDS011;14326;50.794;6.060;2023-06-22T07:37:43;26.58;;;10.73;;
26718;SDS011;14326;50.794;6.060;2023-06-22T07:40:11;21.80;;;10.25;;
26718;SDS011;14326;50.794;6.060;2023-06-22T07:42:38;26.08;;;11.68;;
26718;SDS011;14326;50.794;6.060;2023-06-22T07:45:05;23.00;;;11.10;;
26718;SDS011;14326;50.794;6.060;2023-06-22T07:47:33;22.38;;;10.43;;
26718;SDS011;14326;50.794;6.060;2023-06-22T07:50:00;22.13;;;10.30;;
26718;SDS011;14326;50.794;6.060;2023-06-22T07:52:27;23.88;;;10.05;;
26718;SDS011;14326;50.794;6.060;2023-06-22T07:54:53;24.17;;;9.30;;
26718;SDS011;14326;50.794;6.060;2023-06-22T07:57:21;19.45;;;9.27;;
26718;SDS011;14326;50.794;6.060;2023-06-22T07:59:47;24.20;;;10.18;;
26718;SDS011;14326;50.794;6.060;2023-06-22T08:02:14;23.50;;;10.13;;
26718;SDS011;14326;50.794;6.060;2023-06-22T08:04:40;25.25;;;10.48;;
26718;SDS011;14326;50.794;6.060;2023-06-22T08:07:07;23.05;;;10.35;;
26718;SDS011;14326;50.794;6.060;2023-06-22T08:09:34;23.45;;;10.15;;
26718;SDS011;14326;50.794;6.060;2023-06-22T08:12:01;24.85;;;10.85;;
26718;SDS011;14326;50.794;6.060;2023-06-22T08:14:29;24.63;;;10.30;;
26718;SDS011;14326;50.794;6.060;2023-06-22T08:16:58;25.08;;;10.68;;
26718;SDS011;14326;50.794;6.060;2023-06-22T08:19:26;24.50;;;13.70;;
26718;SDS011;14326;50.794;6.060;2023-06-22T08:24:30;26.25;;;12.90;;
26718;SDS011;14326;50.794;6.060;2023-06-22T08:26:59;26.13;;;13.60;;
26718;SDS011;14326;50.794;6.060;2023-06-22T08:29:34;26.25;;;12.68;;
26718;SDS011;14326;50.794;6.060;2023-06-22T08:32:10;24.88;;;12.75;;
26718;SDS011;14326;50.794;6.060;2023-06-22T08:34:36;25.02;;;12.15;;
26718;SDS011;14326;50.794;6.060;2023-06-22T08:37:16;22.60;;;11.75;;
26718;SDS011;14326;50.794;6.060;2023-06-22T08:39:42;24.75;;;12.52;;
26718;SDS011;14326;50.794;6.060;2023-06-22T08:42:13;26.85;;;12.68;;
26718;SDS011;14326;50.794;6.060;2023-06-22T08:44:42;26.45;;;13.00;;
26718;SDS011;14326;50.794;6.060;2023-06-22T08:47:20;27.48;;;13.82;;
26718;SDS011;14326;50.794;6.060;2023-06-22T08:49:55;28.33;;;14.13;;
26718;SDS011;14326;50.794;6.060;2023-06-22T08:52:39;28.60;;;12.90;;
26718;SDS011;14326;50.794;6.060;2023-06-22T08:55:06;26.10;;;12.45;;
26718;SDS011;14326;50.794;6.060;2023-06-22T08:57:33;24.38;;;12.70;;
26718;SDS011;14326;50.794;6.060;2023-06-22T09:00:04;24.25;;;11.95;;
26718;SDS011;14326;50.794;6.060;2023-06-22T09:02:32;25.02;;;10.90;;
26718;SDS011;14326;50.794;6.060;2023-06-22T09:04:59;24.17;;;11.95;;
26718;SDS011;14326;50.794;6.060;2023-06-22T09:07:26;23.02;;;11.63;;
26718;SDS011;14326;50.794;6.060;2023-06-22T09:09:52;22.63;;;11.27;;
26718;SDS011;14326;50.794;6.060;2023-06-22T09:12:20;22.23;;;12.35;;
26718;SDS011;14326;50.794;6.060;2023-06-22T09:14:52;25.23;;;12.23;;
26718;SDS011;14326;50.794;6.060;2023-06-22T09:17:38;25.00;;;12.63;;
26718;SDS011;14326;50.794;6.060;2023-06-22T09:20:12;25.08;;;12.40;;
26718;SDS011;14326;50.794;6.060;2023-06-22T09:22:56;23.75;;;11.35;;
26718;SDS011;14326;50.794;6.060;2023-06-22T09:25:53;22.92;;;11.05;;
26718;SDS011;14326;50.794;6.060;2023-06-22T09:28:26;25.33;;;12.23;;
26718;SDS011;14326;50.794;6.060;2023-06-22T09:30:52;24.58;;;12.40;;
26718;SDS011;14326;50.794;6.060;2023-06-22T09:33:24;26.33;;;12.90;;
26718;SDS011;14326;50.794;6.060;2023-06-22T09:35:52;24.35;;;11.68;;
26718;SDS011;14326;50.794;6.060;2023-06-22T09:38:34;23.63;;;12.50;;
26718;SDS011;14326;50.794;6.060;2023-06-22T09:41:14;24.80;;;12.00;;
26718;SDS011;14326;50.794;6.060;2023-06-22T09:43:41;21.85;;;11.70;;
26718;SDS011;14326;50.794;6.060;2023-06-22T09:48:59;28.95;;;14.40;;
26718;SDS011;14326;50.794;6.060;2023-06-22T09:51:25;24.23;;;12.82;;
26718;SDS011;14326;50.794;6.060;2023-06-22T09:53:52;28.35;;;12.50;;
26718;SDS011;14326;50.794;6.060;2023-06-22T09:56:19;26.60;;;13.15;;
26718;SDS011;14326;50.794;6.060;2023-06-22T09:58:50;28.33;;;13.38;;
26718;SDS011;14326;50.794;6.060;2023-06-22T10:01:18;26.55;;;13.35;;
26718;SDS011;14326;50.794;6.060;2023-06-22T10:03:45;26.23;;;14.18;;
26718;SDS011;14326;50.794;6.060;2023-06-22T10:06:13;26.40;;;14.10;;
26718;SDS011;14326;50.794;6.060;2023-06-22T10:08:39;30.33;;;14.38;;
26718;SDS011;14326;50.794;6.060;2023-06-22T10:11:06;28.30;;;15.50;;
26718;SDS011;14326;50.794;6.060;2023-06-22T10:16:30;27.20;;;15.55;;
26718;SDS011;14326;50.794;6.060;2023-06-22T10:18:57;25.98;;;15.25;;
26718;SDS011;14326;50.794;6.060;2023-06-22T10:21:25;29.20;;;16.13;;
26718;SDS011;14326;50.794;6.060;2023-06-22T10:23:52;27.83;;;14.68;;
26718;SDS011;14326;50.794;6.060;2023-06-22T10:26:18;32.95;;;17.92;;
26718;SDS011;14326;50.794;6.060;2023-06-22T10:28:46;28.02;;;17.58;;
26718;SDS011;14326;50.794;6.060;2023-06-22T10:31:13;30.45;;;17.75;;
26718;SDS011;14326;50.794;6.060;2023-06-22T10:33:44;33.58;;;19.17;;
26718;SDS011;14326;50.794;6.060;2023-06-22T10:39:18;31.77;;;20.58;;
26718;SDS011;14326;50.794;6.060;2023-06-22T10:41:55;36.05;;;20.77;;
26718;SDS011;14326;50.794;6.060;2023-06-22T10:44:26;36.42;;;21.60;;
26718;SDS011;14326;50.794;6.060;2023-06-22T10:46:55;34.05;;;19.80;;
26718;SDS011;14326;50.794;6.060;2023-06-22T10:49:24;33.80;;;20.67;;
26718;SDS011;14326;50.794;6.060;2023-06-22T10:51:51;35.78;;;22.13;;
26718;SDS011;14326;50.794;6.060;2023-06-22T10:54:18;35.65;;;23.38;;
26718;SDS011;14326;50.794;6.060;2023-06-22T10:56:45;36.05;;;22.85;;
26718;SDS011;14326;50.794;6.060;2023-06-22T10:59:20;39.25;;;23.00;;
26718;SDS011;14326;50.794;6.060;2023-06-22T11:01:54;39.85;;;23.92;;
26718;SDS011;14326;50.794;6.060;2023-06-22T11:04:20;32.92;;;21.40;;
26718;SDS011;14326;50.794;6.060;2023-06-22T11:06:47;33.85;;;21.73;;
26718;SDS011;14326;50.794;6.060;2023-06-22T11:09:13;35.30;;;22.75;;
26718;SDS011;14326;50.794;6.060;2023-06-22T11:11:45;38.38;;;21.88;;
26718;SDS011;14326;50.794;6.060;2023-06-22T11:14:11;35.90;;;24.05;;
26718;SDS011;14326;50.794;6.060;2023-06-22T11:16:37;40.58;;;24.00;;
26718;SDS011;14326;50.794;6.060;2023-06-22T11:19:04;37.03;;;23.70;;
26718;SDS011;14326;50.794;6.060;2023-06-22T11:21:31;35.85;;;23.70;;
26718;SDS011;14326;50.794;6.060;2023-06-22T11:23:57;35.00;;;23.35;;
26718;SDS011;14326;50.794;6.060;2023-06-22T11:26:24;38.53;;;24.17;;
26718;SDS011;14326;50.794;6.060;2023-06-22T11:28:53;34.80;;;22.80;;
26718;SDS011;14326;50.794;6.060;2023-06-22T11:31:19;36.95;;;23.55;;
26718;SDS011;14326;50.794;6.060;2023-06-22T11:33:48;36.22;;;21.80;;
26718;SDS011;14326;50.794;6.060;2023-06-22T11:36:14;35.40;;;21.88;;
26718;SDS011;14326;50.794;6.060;2023-06-22T11:38:41;33.10;;;21.83;;
26718;SDS011;14326;50.794;6.060;2023-06-22T11:41:08;29.17;;;19.23;;
26718;SDS011;14326;50.794;6.060;2023-06-22T11:43:35;28.38;;;18.50;;
26718;SDS011;14326;50.794;6.060;2023-06-22T11:46:07;29.60;;;17.58;;
26718;SDS011;14326;50.794;6.060;2023-06-22T11:48:36;28.67;;;16.45;;
26718;SDS011;14326;50.794;6.060;2023-06-22T11:51:02;28.73;;;18.30;;
26718;SDS011;14326;50.794;6.060;2023-06-22T11:53:31;27.65;;;16.13;;
26718;SDS011;14326;50.794;6.060;2023-06-22T11:55:59;24.92;;;14.52;;
26718;SDS011;14326;50.794;6.060;2023-06-22T11:58:26;24.42;;;14.02;;
26718;SDS011;14326;50.794;6.060;2023-06-22T12:00:52;23.02;;;13.65;;
26718;SDS011;14326;50.794;6.060;2023-06-22T12:03:20;24.40;;;13.40;;
26718;SDS011;14326;50.794;6.060;2023-06-22T12:06:08;27.80;;;14.35;;
26718;SDS011;14326;50.794;6.060;2023-06-22T12:08:46;28.88;;;14.15;;
26718;SDS011;14326;50.794;6.060;2023-06-22T12:11:14;28.80;;;14.05;;
26718;SDS011;14326;50.794;6.060;2023-06-22T12:13:41;26.20;;;14.93;;
26718;SDS011;14326;50.794;6.060;2023-06-22T12:16:07;25.15;;;14.25;;
26718;SDS011;14326;50.794;6.060;2023-06-22T12:18:35;24.48;;;13.45;;
26718;SDS011;14326;50.794;6.060;2023-06-22T12:21:15;25.45;;;14.52;;
26718;SDS011;14326;50.794;6.060;2023-06-22T12:23:54;27.25;;;15.50;;
26718;SDS011;14326;50.794;6.060;2023-06-22T12:26:20;24.35;;;14.70;;
26718;SDS011;14326;50.794;6.060;2023-06-22T12:28:49;23.92;;;14.10;;
26718;SDS011;14326;50.794;6.060;2023-06-22T12:31:25;28.00;;;15.30;;
26718;SDS011;14326;50.794;6.060;2023-06-22T12:33:59;25.33;;;14.38;;
26718;SDS011;14326;50.794;6.060;2023-06-22T12:36:26;25.50;;;15.65;;
26718;SDS011;14326;50.794;6.060;2023-06-22T12:38:52;25.67;;;15.40;;
26718;SDS011;14326;50.794;6.060;2023-06-22T12:41:19;28.55;;;14.57;;
26718;SDS011;14326;50.794;6.060;2023-06-22T12:43:46;24.00;;;14.45;;
26718;SDS011;14326;50.794;6.060;2023-06-22T12:46:12;24.75;;;14.00;;
26718;SDS011;14326;50.794;6.060;2023-06-22T12:48:38;22.77;;;13.55;;
26718;SDS011;14326;50.794;6.060;2023-06-22T12:51:09;24.42;;;13.48;;
26718;SDS011;14326;50.794;6.060;2023-06-22T12:53:35;25.38;;;13.90;;
26718;SDS011;14326;50.794;6.060;2023-06-22T12:56:02;23.50;;;13.15;;
26718;SDS011;14326;50.794;6.060;2023-06-22T12:58:28;25.17;;;13.10;;
26718;SDS011;14326;50.794;6.060;2023-06-22T13:00:55;24.75;;;12.50;;
26718;SDS011;14326;50.794;6.060;2023-06-22T13:03:21;23.17;;;12.60;;
26718;SDS011;14326;50.794;6.060;2023-06-22T13:05:49;23.10;;;11.73;;
26718;SDS011;14326;50.794;6.060;2023-06-22T13:08:16;23.65;;;11.77;;
26718;SDS011;14326;50.794;6.060;2023-06-22T13:10:43;20.48;;;10.55;;
26718;SDS011;14326;50.794;6.060;2023-06-22T13:13:09;24.92;;;14.68;;
26718;SDS011;14326;50.794;6.060;2023-06-22T13:15:42;24.35;;;12.95;;
26718;SDS011;14326;50.794;6.060;2023-06-22T13:18:11;26.83;;;15.07;;
26718;SDS011;14326;50.794;6.060;2023-06-22T13:20:38;25.20;;;13.60;;
26718;SDS011;14326;50.794;6.060;2023-06-22T13:23:04;27.67;;;14.68;;
26718;SDS011;14326;50.794;6.060;2023-06-22T13:25:32;26.88;;;15.02;;
26718;SDS011;14326;50.794;6.060;2023-06-22T13:27:58;26.52;;;14.85;;
26718;SDS011;14326;50.794;6.060;2023-06-22T13:30:25;27.10;;;15.85;;
26718;SDS011;14326;50.794;6.060;2023-06-22T13:32:51;25.63;;;15.40;;
26718;SDS011;14326;50.794;6.060;2023-06-22T13:35:17;26.58;;;16.30;;
26718;SDS011;14326;50.794;6.060;2023-06-22T13:37:44;31.92;;;17.67;;
26718;SDS011;14326;50.794;6.060;2023-06-22T13:40:10;31.27;;;18.75;;
26718;SDS011;14326;50.794;6.060;2023-06-22T13:42:38;32.10;;;20.73;;
26718;SDS011;14326;50.794;6.060;2023-06-22T13:45:05;34.33;;;21.75;;
26718;SDS011;14326;50.794;6.060;2023-06-22T13:47:32;31.58;;;22.40;;
26718;SDS011;14326;50.794;6.060;2023-06-22T13:49:59;36.35;;;23.52;;
26718;SDS011;14326;50.794;6.060;2023-06-22T13:52:25;33.20;;;21.52;;
26718;SDS011;14326;50.794;6.060;2023-06-22T13:54:52;33.40;;;22.70;;
26718;SDS011;14326;50.794;6.060;2023-06-22T13:57:18;33.70;;;22.50;;
26718;SDS011;14326;50.794;6.060;2023-06-22T13:59:46;37.80;;;24.50;;
26718;SDS011;14326;50.794;6.060;2023-06-22T14:04:41;34.33;;;22.42;;
26718;SDS011;14326;50.794;6.060;2023-06-22T14:07:07;35.63;;;21.90;;
26718;SDS011;14326;50.794;6.060;2023-06-22T14:09:34;37.13;;;23.30;;
26718;SDS011;14326;50.794;6.060;2023-06-22T14:12:02;35.30;;;23.33;;
26718;SDS011;14326;50.794;6.060;2023-06-22T14:14:28;38.38;;;24.92;;
26718;SDS011;14326;50.794;6.060;2023-06-22T14:16:56;37.67;;;25.30;;
26718;SDS011;14326;50.794;6.060;2023-06-22T14:19:23;37.85;;;26.92;;
26718;SDS011;14326;50.794;6.060;2023-06-22T14:21:49;38.95;;;26.67;;
26718;SDS011;14326;50.794;6.060;2023-06-22T14:24:15;41.08;;;27.77;;
26718;SDS011;14326;50.794;6.060;2023-06-22T14:26:42;42.63;;;29.02;;
26718;SDS011;14326;50.794;6.060;2023-06-22T14:29:08;41.58;;;29.38;;
26718;SDS011;14326;50.794;6.060;2023-06-22T14:31:35;42.08;;;29.65;;
26718;SDS011;14326;50.794;6.060;2023-06-22T14:34:02;40.13;;;29.77;;
26718;SDS011;14326;50.794;6.060;2023-06-22T14:36:30;44.88;;;31.63;;
26718;SDS011;14326;50.794;6.060;2023-06-22T14:38:57;42.97;;;30.15;;
26718;SDS011;14326;50.794;6.060;2023-06-22T14:41:23;40.92;;;29.70;;
26718;SDS011;14326;50.794;6.060;2023-06-22T14:43:49;46.20;;;31.33;;
26718;SDS011;14326;50.794;6.060;2023-06-22T14:46:17;44.50;;;32.20;;
26718;SDS011;14326;50.794;6.060;2023-06-22T14:48:43;45.53;;;33.97;;
26718;SDS011;14326;50.794;6.060;2023-06-22T14:51:11;50.90;;;34.00;;
26718;SDS011;14326;50.794;6.060;2023-06-22T14:53:38;55.08;;;37.72;;
26718;SDS011;14326;50.794;6.060;2023-06-22T14:56:04;59.35;;;41.95;;
26718;SDS011;14326;50.794;6.060;2023-06-22T14:58:31;63.53;;;43.90;;
26718;SDS011;14326;50.794;6.060;2023-06-22T15:00:58;66.03;;;45.80;;
26718;SDS011;14326;50.794;6.060;2023-06-22T15:03:25;66.57;;;46.33;;
26718;SDS011;14326;50.794;6.060;2023-06-22T15:05:53;55.05;;;39.92;;
26718;SDS011;14326;50.794;6.060;2023-06-22T15:08:21;44.67;;;28.65;;
26718;SDS011;14326;50.794;6.060;2023-06-22T15:10:48;48.13;;;33.10;;
26718;SDS011;14326;50.794;6.060;2023-06-22T15:13:14;47.30;;;30.77;;
26718;SDS011;14326;50.794;6.060;2023-06-22T15:15:42;52.33;;;38.85;;
26718;SDS011;14326;50.794;6.060;2023-06-22T15:18:08;65.15;;;46.15;;
26718;SDS011;14326;50.794;6.060;2023-06-22T15:20:35;67.78;;;49.40;;
26718;SDS011;14326;50.794;6.060;2023-06-22T15:23:01;54.45;;;37.92;;